Ashland, New Hampshire
Current Conditions -  °F | °C
As of 9:55 PM on Wednesday 22 Oct 2014 (Local Time) from K1P1 Reporting Station
Overcast Overcast  
Wind Chill: 51°   Ceiling: 2700
Heat Index: 51°   Visibility: 10mi
Dew Point: 49°   Wind: 0mph
Humidity: 94%   Direction: NA
Pressure: 30"   Gusts: NA
Location:  43.7°N, 71.63°W
Report Text: K1P1 230155Z AUTO 00000KT 10SM OVC027 10/09 A3000 RMK AO2 LTG DSNT S T01040094
Loading
Personal Weather Stations






























Interactive Weather Map
Tropical Storm Tracking
New forecast layout! Learn more

10-Day Weather Forecast

Advertisements
Track Severe Weather on mobile